Time;durP1;ratioP1;P1;durP2;ratioP2;P2;SDS_P1;SDS_P2;PMS_P1;PMS_P2;Temp;Humidity;BMP_temperature;BMP_pressure;BME280_temperature;BME280_humidity;BME280_pressure;Samples;Min_cycle;Max_cycle;Signal;HPM_P1;HPM_P2
2022/04/22 00:01:10;;;;;;;;;;;9.90;78.20;;;;;;5002078;28;19923;-79
2022/04/22 00:03:36;;;;;;;;;;;9.90;78.30;;;;;;5001998;28;20003;-78
2022/04/22 00:06:01;;;;;;;;;;;9.80;78.80;;;;;;5017834;28;19917;-79
2022/04/22 00:08:27;;;;;;;;;;;9.80;78.60;;;;;;5001776;28;19921;-80
2022/04/22 00:13:37;;;;;;;;;;;9.80;79.10;;;;;;5017735;28;19939;-79
2022/04/22 00:16:03;;;;;;;;;;;9.80;78.90;;;;;;5000778;28;20354;-79
2022/04/22 00:18:30;;;;;;;;;;;9.70;79.10;;;;;;5001331;28;19964;-78
2022/04/22 00:20:56;;;;;;;;;;;9.70;79.60;;;;;;5000994;28;19939;-78
2022/04/22 00:23:22;;;;;;;;;;;9.70;79.60;;;;;;5017334;28;19917;-77
2022/04/22 00:25:48;;;;;;;;;;;9.70;79.50;;;;;;5017539;28;19959;-79
2022/04/22 00:28:13;;;;;;;;;;;9.70;80.10;;;;;;5002802;28;19952;-74
2022/04/22 00:30:39;;;;;;;;;;;9.80;80.20;;;;;;5010401;28;19950;-76
2022/04/22 00:33:06;;;;;;;;;;;9.50;80.40;;;;;;5024785;28;19921;-78
2022/04/22 00:35:31;;;;;;;;;;;9.60;80.80;;;;;;5001204;28;20255;-79
2022/04/22 00:37:58;;;;;;;;;;;9.70;80.60;;;;;;5001314;28;19916;-78
2022/04/22 00:40:24;;;;;;;;;;;9.50;80.70;;;;;;5001137;28;19916;-79
2022/04/22 00:42:50;;;;;;;;;;;9.50;81.20;;;;;;5000853;28;20259;-78
2022/04/22 00:45:18;;;;;;;;;;;9.40;81.50;;;;;;5000339;28;19917;-79
2022/04/22 00:47:43;;;;;;;;;;;9.20;81.70;;;;;;5017635;28;19924;-79
2022/04/22 00:50:09;;;;;;;;;;;9.20;82.00;;;;;;5016593;28;19917;-77
2022/04/22 00:52:34;;;;;;;;;;;9.10;82.40;;;;;;5000903;28;20255;-78
2022/04/22 00:55:00;;;;;;;;;;;9.10;82.70;;;;;;5000365;28;19990;-79
2022/04/22 00:57:26;;;;;;;;;;;8.80;82.90;;;;;;5016419;28;20298;-79
2022/04/22 00:59:51;;;;;;;;;;;8.70;83.40;;;;;;4999729;28;19913;-78
2022/04/22 01:02:17;;;;;;;;;;;8.60;84.30;;;;;;5000301;28;20007;-79
2022/04/22 01:10:11;;;;;;;;;;;8.40;85.90;;;;;;5016850;28;19924;-79
2022/04/22 01:12:37;;;;;;;;;;;8.30;86.00;;;;;;5016846;28;20367;-77
2022/04/22 01:15:03;;;;;;;;;;;8.40;85.30;;;;;;5017002;28;19917;-78
2022/04/22 01:17:29;;;;;;;;;;;8.30;86.00;;;;;;5016885;28;19924;-78
2022/04/22 01:19:55;;;;;;;;;;;8.30;85.80;;;;;;5016400;28;19917;-78
2022/04/22 01:22:21;;;;;;;;;;;8.20;85.70;;;;;;4999893;28;19917;-79
2022/04/22 01:24:49;;;;;;;;;;;8.20;85.70;;;;;;5016334;28;19956;-78
2022/04/22 01:27:14;;;;;;;;;;;8.40;85.90;;;;;;4999859;28;19920;-80
2022/04/22 01:29:40;;;;;;;;;;;8.00;85.70;;;;;;5016166;28;19999;-79
2022/04/22 01:32:06;;;;;;;;;;;7.90;86.50;;;;;;5000288;28;19924;-77
2022/04/22 01:34:32;;;;;;;;;;;7.90;86.50;;;;;;4999705;28;19960;-78
2022/04/22 01:36:58;;;;;;;;;;;8.00;87.30;;;;;;5000175;28;19923;-78
2022/04/22 01:39:24;;;;;;;;;;;7.90;87.90;;;;;;5000158;28;20335;-78
2022/04/22 01:41:49;;;;;;;;;;;7.80;88.20;;;;;;5016707;28;19971;-78
2022/04/22 01:44:16;;;;;;;;;;;8.00;88.20;;;;;;4999374;28;20157;-78
2022/04/22 01:46:42;;;;;;;;;;;7.80;87.70;;;;;;5011565;28;20298;-78
2022/04/22 01:49:07;;;;;;;;;;;7.80;88.10;;;;;;4996372;28;19917;-79
2022/04/22 01:51:34;;;;;;;;;;;7.80;88.10;;;;;;4996587;28;19918;-78
2022/04/22 01:53:59;;;;;;;;;;;7.80;88.40;;;;;;4980373;28;19924;-78
2022/04/22 01:56:25;;;;;;;;;;;7.90;88.50;;;;;;4996852;28;19921;-78
2022/04/22 01:58:50;;;;;;;;;;;7.90;88.60;;;;;;4998864;28;19949;-74
2022/04/22 02:01:16;;;;;;;;;;;8.00;89.00;;;;;;5005958;28;19980;-74
2022/04/22 02:03:41;;;;;;;;;;;7.80;88.70;;;;;;4986321;28;19917;-78
2022/04/22 02:06:07;;;;;;;;;;;7.90;89.50;;;;;;4980540;28;19917;-79
2022/04/22 02:08:33;;;;;;;;;;;7.80;89.60;;;;;;4996217;28;19971;-77
2022/04/22 02:10:59;;;;;;;;;;;8.10;89.90;;;;;;4980480;28;19924;-78
2022/04/22 02:13:24;;;;;;;;;;;8.10;89.50;;;;;;4980258;28;20016;-77
2022/04/22 02:15:50;;;;;;;;;;;7.80;88.90;;;;;;4996667;28;19917;-77
2022/04/22 02:18:15;;;;;;;;;;;7.80;89.00;;;;;;4979516;28;20008;-77
2022/04/22 02:20:41;;;;;;;;;;;7.70;89.30;;;;;;4996565;28;19924;-78
2022/04/22 02:23:06;;;;;;;;;;;7.80;89.30;;;;;;4996308;28;19917;-78
2022/04/22 02:25:32;;;;;;;;;;;7.80;89.00;;;;;;4996231;28;20003;-77
2022/04/22 02:30:42;;;;;;;;;;;7.90;88.50;;;;;;4996419;28;20344;-77
2022/04/22 02:33:07;;;;;;;;;;;7.90;87.90;;;;;;4980150;28;19923;-77
2022/04/22 02:35:33;;;;;;;;;;;7.90;87.80;;;;;;4996452;28;20298;-78
2022/04/22 02:37:58;;;;;;;;;;;8.00;88.00;;;;;;4996215;28;19917;-79
2022/04/22 02:45:52;;;;;;;;;;;7.90;88.20;;;;;;4996076;28;20000;-79
2022/04/22 02:48:18;;;;;;;;;;;7.90;88.40;;;;;;4995329;28;19996;-77
2022/04/22 02:50:43;;;;;;;;;;;7.90;88.70;;;;;;4979724;28;19920;-80
2022/04/22 02:53:09;;;;;;;;;;;7.80;88.80;;;;;;4995752;28;20277;-79
2022/04/22 02:55:36;;;;;;;;;;;7.90;88.70;;;;;;4982039;28;19921;-80
2022/04/22 02:58:02;;;;;;;;;;;7.80;88.70;;;;;;4983069;28;19917;-79
2022/04/22 03:00:28;;;;;;;;;;;7.80;88.30;;;;;;4982780;28;19923;-79
2022/04/22 03:02:53;;;;;;;;;;;7.80;88.40;;;;;;4983326;28;19924;-79
2022/04/22 03:05:19;;;;;;;;;;;7.80;88.00;;;;;;4999465;28;19935;-77
2022/04/22 03:07:44;;;;;;;;;;;7.70;88.00;;;;;;4998722;28;19913;-79
2022/04/22 03:10:10;;;;;;;;;;;7.80;87.80;;;;;;4999219;28;20367;-80
2022/04/22 03:12:36;;;;;;;;;;;7.80;86.80;;;;;;4999110;28;20021;-78
2022/04/22 03:15:02;;;;;;;;;;;7.80;86.60;;;;;;4999606;28;19924;-78
2022/04/22 03:17:27;;;;;;;;;;;7.70;86.10;;;;;;4999028;28;19918;-79
2022/04/22 03:19:53;;;;;;;;;;;8.00;86.20;;;;;;4999466;28;19918;-79
2022/04/22 03:22:19;;;;;;;;;;;7.90;86.20;;;;;;4982965;28;19923;-78
2022/04/22 03:24:44;;;;;;;;;;;7.70;85.70;;;;;;4999732;28;19925;-80
2022/04/22 03:27:10;;;;;;;;;;;7.70;85.70;;;;;;4983357;28;20011;-79
2022/04/22 03:29:35;;;;;;;;;;;7.60;85.70;;;;;;5008080;28;19921;-77
2022/04/22 03:32:01;;;;;;;;;;;7.50;86.20;;;;;;4993940;28;19993;-74
2022/04/22 03:34:27;;;;;;;;;;;7.50;86.40;;;;;;4999875;28;19960;-80
2022/04/22 03:36:52;;;;;;;;;;;7.50;86.60;;;;;;4998979;28;19917;-79
2022/04/22 03:39:18;;;;;;;;;;;7.50;86.50;;;;;;4998615;28;19964;-78
2022/04/22 03:41:44;;;;;;;;;;;7.50;86.60;;;;;;4982519;28;20371;-79
2022/04/22 03:44:10;;;;;;;;;;;7.40;86.80;;;;;;4982806;28;20241;-78
2022/04/22 03:46:36;;;;;;;;;;;7.50;86.70;;;;;;4982741;28;19921;-78
2022/04/22 03:49:04;;;;;;;;;;;7.40;86.70;;;;;;4998552;28;19925;-81
2022/04/22 03:51:29;;;;;;;;;;;7.40;86.80;;;;;;4998468;28;19918;-81
2022/04/22 03:53:55;;;;;;;;;;;7.10;86.50;;;;;;4982055;28;19921;-79
2022/04/22 03:59:05;;;;;;;;;;;7.30;86.70;;;;;;4998024;28;20009;-80
2022/04/22 04:01:31;;;;;;;;;;;7.30;86.80;;;;;;4997862;28;20370;-79
2022/04/22 04:03:57;;;;;;;;;;;7.30;87.00;;;;;;4998335;28;20252;-80
2022/04/22 04:06:23;;;;;;;;;;;7.20;87.10;;;;;;4997171;28;19913;-80
2022/04/22 04:15:57;;;;;;;;;;;7.30;87.10;;;;;;4998031;28;19917;-79
2022/04/22 04:17:05;;;;;;;;;;;7.40;85.80;;;;;;4998492;28;19925;-78
2022/04/22 04:24:59;;;;;;;;;;;7.20;85.70;;;;;;4998013;28;19917;-80
2022/04/22 04:27:24;;;;;;;;;;;7.30;85.70;;;;;;4981998;28;19940;-77
2022/04/22 04:29:50;;;;;;;;;;;7.20;85.20;;;;;;4981431;28;19932;-76
2022/04/22 04:32:18;;;;;;;;;;;7.10;85.40;;;;;;4981872;28;19917;-79
2022/04/22 04:34:44;;;;;;;;;;;7.30;85.30;;;;;;4997732;28;20268;-79
2022/04/22 04:37:10;;;;;;;;;;;7.20;85.30;;;;;;4981678;28;19917;-80
2022/04/22 04:39:36;;;;;;;;;;;7.10;85.20;;;;;;4997560;28;19917;-79
2022/04/22 04:42:02;;;;;;;;;;;7.10;85.40;;;;;;4998038;28;19918;-79
2022/04/22 04:44:28;;;;;;;;;;;7.10;85.30;;;;;;4998004;28;19925;-79
2022/04/22 04:46:54;;;;;;;;;;;7.10;85.10;;;;;;4981084;28;19921;-78
2022/04/22 04:49:19;;;;;;;;;;;7.00;85.20;;;;;;4997779;28;19918;-78
2022/04/22 04:51:45;;;;;;;;;;;7.10;84.60;;;;;;5008088;28;20007;-75
2022/04/22 04:54:11;;;;;;;;;;;7.10;85.00;;;;;;5009208;28;20004;-75
2022/04/22 04:56:36;;;;;;;;;;;7.10;84.90;;;;;;5008387;28;19917;-76
2022/04/22 04:59:03;;;;;;;;;;;7.10;84.70;;;;;;4997988;28;19924;-79
2022/04/22 05:01:28;;;;;;;;;;;7.10;84.50;;;;;;4997568;28;19965;-81
2022/04/22 05:03:54;;;;;;;;;;;7.10;84.30;;;;;;5013938;28;20327;-77
2022/04/22 05:06:19;;;;;;;;;;;7.10;84.10;;;;;;4997626;28;19957;-79
2022/04/22 05:08:45;;;;;;;;;;;7.10;83.90;;;;;;4996987;28;19921;-79
2022/04/22 05:11:11;;;;;;;;;;;7.10;84.20;;;;;;4996881;28;19948;-78
2022/04/22 05:13:36;;;;;;;;;;;7.10;84.20;;;;;;4997197;28;19924;-79
2022/04/22 05:16:02;;;;;;;;;;;7.20;84.00;;;;;;4997064;28;19918;-78
2022/04/22 05:18:29;;;;;;;;;;;7.20;83.80;;;;;;4996474;28;19924;-79
2022/04/22 05:20:55;;;;;;;;;;;7.20;83.70;;;;;;4997080;28;20103;-80
2022/04/22 05:23:21;;;;;;;;;;;7.30;83.50;;;;;;4997031;28;20398;-79
2022/04/22 05:25:47;;;;;;;;;;;7.40;83.20;;;;;;4996679;28;20378;-80
2022/04/22 05:28:13;;;;;;;;;;;7.50;83.20;;;;;;4996856;28;19913;-79
2022/04/22 05:33:23;;;;;;;;;;;7.60;82.40;;;;;;4996435;28;19913;-80
2022/04/22 05:35:48;;;;;;;;;;;7.70;82.40;;;;;;4996896;28;19999;-79
2022/04/22 05:38:15;;;;;;;;;;;7.80;81.30;;;;;;4996122;28;19924;-79
2022/04/22 05:40:48;;;;;;;;;;;7.90;81.60;;;;;;4996176;28;19913;-82
2022/04/22 05:43:16;;;;;;;;;;;8.30;81.10;;;;;;4996957;28;19921;-83
2022/04/22 05:45:42;;;;;;;;;;;8.20;79.90;;;;;;4996483;28;19913;-80
2022/04/22 05:48:14;;;;;;;;;;;8.20;80.10;;;;;;4996816;28;19920;-80
2022/04/22 05:50:43;;;;;;;;;;;8.30;79.30;;;;;;4996347;28;20358;-76
2022/04/22 05:53:08;;;;;;;;;;;8.40;78.50;;;;;;4996379;28;19913;-79
2022/04/22 05:55:46;;;;;;;;;;;;;;;;;;;;;
2022/04/22 05:58:26;;;;;;;;;;;8.60;77.50;;;;;;4995640;28;20347;-78
2022/04/22 06:04:22;;;;;;;;;;;;;;;;;;;;;
2022/04/22 06:06:59;;;;;;;;;;;9.10;76.80;;;;;;4976650;28;19913;-78
2022/04/22 06:15:06;;;;;;;;;;;9.60;75.10;;;;;;4980375;28;19922;-78
2022/04/22 06:17:52;;;;;;;;;;;9.60;73.40;;;;;;4989393;28;20279;-75
2022/04/22 06:21:02;;;;;;;;;;;9.60;73.40;;;;;;4971880;28;19920;-78
2022/04/22 06:24:16;;;;;;;;;;;9.80;73.80;;;;;;4986979;28;19918;-83
2022/04/22 06:26:42;;;;;;;;;;;9.80;72.20;;;;;;4977019;28;19914;-80
2022/04/22 06:29:08;;;;;;;;;;;9.90;71.90;;;;;;4976173;28;20272;-78
2022/04/22 06:31:35;;;;;;;;;;;9.90;71.70;;;;;;4966337;28;20004;-74
2022/04/22 06:34:01;;;;;;;;;;;10.00;70.90;;;;;;4967314;28;19920;-75
2022/04/22 06:36:31;;;;;;;;;;;10.10;71.20;;;;;;4990157;28;19918;-76
2022/04/22 06:39:03;;;;;;;;;;;10.30;70.30;;;;;;4986614;28;19917;-80
2022/04/22 06:46:54;;;;;;;;;;;10.40;69.40;;;;;;4986570;28;19972;-74
2022/04/22 06:49:19;;;;;;;;;;;10.50;69.30;;;;;;4985720;28;19913;-74
2022/04/22 06:51:45;;;;;;;;;;;10.70;70.10;;;;;;4969464;28;19917;-76
2022/04/22 06:54:11;;;;;;;;;;;10.80;68.70;;;;;;4970482;28;19921;-76
2022/04/22 06:56:38;;;;;;;;;;;10.90;67.60;;;;;;4980699;28;19918;-77
2022/04/22 06:59:04;;;;;;;;;;;10.90;67.80;;;;;;4986679;28;19929;-75
2022/04/22 07:01:30;;;;;;;;;;;11.10;67.40;;;;;;4997072;28;19917;-78
2022/04/22 07:03:58;;;;;;;;;;;11.10;67.20;;;;;;4980092;28;19921;-79
2022/04/22 07:06:24;;;;;;;;;;;11.20;67.20;;;;;;4998130;28;20310;-77
2022/04/22 07:08:50;;;;;;;;;;;11.30;67.30;;;;;;4997450;28;20376;-76
2022/04/22 07:11:21;;;;;;;;;;;11.30;67.80;;;;;;4981810;28;19917;-76
2022/04/22 07:14:02;;;;;;;;;;;11.50;67.80;;;;;;4982321;28;20372;-79
2022/04/22 07:16:28;;;;;;;;;;;11.60;68.00;;;;;;4997903;28;19918;-78
2022/04/22 07:18:57;;;;;;;;;;;11.70;65.90;;;;;;4981460;28;19917;-78
2022/04/22 07:21:23;;;;;;;;;;;11.80;67.10;;;;;;5000604;28;20269;-78
2022/04/22 07:23:49;;;;;;;;;;;11.80;65.60;;;;;;4997171;28;19913;-81
2022/04/22 07:26:16;;;;;;;;;;;11.90;65.70;;;;;;4983505;28;19924;-78
2022/04/22 07:28:44;;;;;;;;;;;11.90;65.10;;;;;;4980749;28;20371;-80
2022/04/22 07:31:10;;;;;;;;;;;12.10;65.90;;;;;;4981272;28;19917;-80
2022/04/22 07:33:36;;;;;;;;;;;12.10;66.40;;;;;;4980684;28;19923;-77
2022/04/22 07:36:01;;;;;;;;;;;12.30;64.50;;;;;;4998087;28;19917;-79
2022/04/22 07:38:28;;;;;;;;;;;12.30;64.90;;;;;;4980853;28;19914;-80
2022/04/22 07:40:56;;;;;;;;;;;12.20;66.00;;;;;;4996298;28;19968;-80
2022/04/22 07:48:58;;;;;;;;;;;12.50;64.00;;;;;;5000718;28;19961;-79
2022/04/22 07:51:27;;;;;;;;;;;12.50;65.60;;;;;;4981007;28;19917;-79
2022/04/22 07:53:55;;;;;;;;;;;12.70;67.10;;;;;;5002633;28;20944;-79
2022/04/22 07:56:21;;;;;;;;;;;12.80;65.30;;;;;;4997247;28;19917;-82
2022/04/22 08:02:01;;;;;;;;;;;12.60;65.40;;;;;;4981722;28;19917;-79
2022/04/22 08:04:26;;;;;;;;;;;12.80;64.60;;;;;;4966063;28;19918;-78
2022/04/22 08:06:52;;;;;;;;;;;12.70;66.00;;;;;;4962423;28;20308;-79
2022/04/22 08:09:25;;;;;;;;;;;13.00;65.30;;;;;;4979451;28;19924;-82
2022/04/22 08:11:54;;;;;;;;;;;12.70;65.00;;;;;;4986980;28;20360;-75
2022/04/22 08:14:42;;;;;;;;;;;12.80;66.00;;;;;;4964210;28;19914;-74
2022/04/22 08:17:39;;;;;;;;;;;12.80;64.30;;;;;;4980357;28;19979;-75
2022/04/22 08:20:05;;;;;;;;;;;13.00;64.80;;;;;;4997192;28;20244;-76
2022/04/22 08:22:36;;;;;;;;;;;13.10;65.30;;;;;;4976517;28;19921;-78
2022/04/22 08:25:11;;;;;;;;;;;13.10;64.50;;;;;;4976467;28;20374;-77
2022/04/22 08:27:37;;;;;;;;;;;13.20;64.40;;;;;;4978179;28;19984;-79
2022/04/22 08:30:06;;;;;;;;;;;13.20;64.30;;;;;;4961132;28;19921;-75
2022/04/22 08:32:32;;;;;;;;;;;13.40;65.70;;;;;;4977577;28;19913;-79
2022/04/22 08:34:58;;;;;;;;;;;13.40;64.90;;;;;;4962121;28;19952;-82
2022/04/22 08:37:23;;;;;;;;;;;13.40;65.00;;;;;;4960741;28;19921;-81
2022/04/22 08:39:49;;;;;;;;;;;13.70;64.70;;;;;;4976878;28;19929;-81
2022/04/22 08:42:15;;;;;;;;;;;13.60;64.90;;;;;;4959826;28;19918;-79
2022/04/22 08:44:41;;;;;;;;;;;13.70;66.00;;;;;;4978521;28;20000;-82
2022/04/22 08:50:01;;;;;;;;;;;13.60;65.00;;;;;;4978463;28;20299;-82
2022/04/22 08:52:28;;;;;;;;;;;13.80;64.50;;;;;;4969128;28;20012;-81
2022/04/22 09:01:41;;;;;;;;;;;13.70;65.40;;;;;;4970768;28;20094;-80
2022/04/22 09:11:24;;;;;;;;;;;;;;;;;;;;;
2022/04/22 09:14:34;;;;;;;;;;;;;;;;;;;;;
2022/04/22 09:55:24;;;;;;;;;;;15.00;63.40;;;;;;4825721;29;19919;-79
2022/04/22 10:05:46;;;;;;;;;;;15.00;62.60;;;;;;4698903;30;19919;-78
2022/04/22 10:09:14;;;;;;;;;;;;;;;;;;;;;
2022/04/22 10:11:29;;;;;;;;;;;15.40;62.60;;;;;;4736390;29;19932;-76
2022/04/22 10:14:20;;;;;;;;;;;15.30;62.10;;;;;;4807876;29;20356;-81
2022/04/22 10:16:48;;;;;;;;;;;15.30;63.10;;;;;;4835536;29;19919;-81
2022/04/22 10:19:14;;;;;;;;;;;15.30;63.10;;;;;;4904508;28;19922;-81
2022/04/22 10:21:40;;;;;;;;;;;15.30;62.70;;;;;;4943914;28;20022;-81
2022/04/22 10:24:08;;;;;;;;;;;15.30;61.30;;;;;;4944780;28;20407;-81
2022/04/22 10:26:36;;;;;;;;;;;15.10;63.00;;;;;;4961103;28;19914;-81
2022/04/22 10:29:04;;;;;;;;;;;14.90;62.30;;;;;;4944882;28;19914;-81
2022/04/22 10:31:32;;;;;;;;;;;14.80;61.90;;;;;;4943601;28;19918;-80
2022/04/22 10:34:10;;;;;;;;;;;15.00;62.10;;;;;;4961096;28;19972;-81
2022/04/22 10:36:38;;;;;;;;;;;15.10;61.40;;;;;;4981583;28;19913;-81
2022/04/22 10:39:06;;;;;;;;;;;15.10;60.50;;;;;;4981147;28;19918;-80
2022/04/22 10:41:53;;;;;;;;;;;14.90;60.00;;;;;;4965179;28;19914;-80
2022/04/22 10:47:39;;;;;;;;;;;15.10;61.50;;;;;;4982481;28;19913;-82
2022/04/22 10:50:28;;;;;;;;;;;15.00;61.30;;;;;;5021316;28;19926;-82
2022/04/22 10:53:16;;;;;;;;;;;;;;;;;;;;;
2022/04/22 10:56:16;;;;;;;;;;;15.00;63.80;;;;;;5003906;28;19912;-79
2022/04/22 10:59:09;;;;;;;;;;;15.30;63.10;;;;;;4978624;28;19913;-81
2022/04/22 11:01:42;;;;;;;;;;;15.20;63.80;;;;;;4989669;28;19914;-74
2022/04/22 11:08:01;;;;;;;;;;;;;;;;;;;;;
2022/04/22 11:24:58;;;;;;;;;;;15.00;64.30;;;;;;4865779;29;19915;-80
2022/04/22 11:27:29;;;;;;;;;;;14.90;65.90;;;;;;4851491;29;20375;-81
2022/04/22 11:29:59;;;;;;;;;;;14.90;65.10;;;;;;4865237;29;20293;-82
2022/04/22 11:36:11;;;;;;;;;;;15.00;65.70;;;;;;4912192;29;19918;-80
2022/04/22 11:39:05;;;;;;;;;;;14.90;64.60;;;;;;4982729;28;19913;-78
2022/04/22 11:58:38;;;;;;;;;;;15.00;65.30;;;;;;4958132;28;19925;-76
2022/04/22 12:26:05;;;;;;;;;;;15.30;65.30;;;;;;4787398;29;20368;-72
2022/04/22 12:29:13;;;;;;;;;;;15.50;64.90;;;;;;4805073;29;20291;-72
2022/04/22 12:35:18;;;;;;;;;;;15.40;64.90;;;;;;4805490;29;19924;-74
2022/04/22 12:41:20;;;;;;;;;;;15.50;65.30;;;;;;4803102;29;19970;-71
2022/04/22 12:44:30;;;;;;;;;;;15.60;66.20;;;;;;4823367;29;19920;-75
2022/04/22 12:53:18;;;;;;;;;;;15.40;66.10;;;;;;4938110;29;20430;-74
2022/04/22 13:02:47;;;;;;;;;;;15.80;66.90;;;;;;4918258;29;19999;-78
2022/04/22 13:05:46;;;;;;;;;;;15.60;66.70;;;;;;4935410;29;20367;-81
2022/04/22 13:08:30;;;;;;;;;;;;;;;;;;;;;
2022/04/22 13:14:44;;;;;;;;;;;15.70;68.30;;;;;;4955296;28;20443;-83
2022/04/22 13:17:56;;;;;;;;;;;15.60;66.50;;;;;;4913475;29;19914;-83
2022/04/22 13:21:16;;;;;;;;;;;;;;;;;;;;;
2022/04/22 13:24:31;;;;;;;;;;;15.50;66.30;;;;;;4772647;30;19917;-84
2022/04/22 13:27:15;;;;;;;;;;;15.40;67.60;;;;;;4743951;30;19933;-79
2022/04/22 13:33:01;;;;;;;;;;;15.90;66.80;;;;;;4821820;29;19938;-73
2022/04/22 13:35:26;;;;;;;;;;;16.00;66.20;;;;;;4956758;28;20376;-73
2022/04/22 13:38:00;;;;;;;;;;;16.00;65.90;;;;;;4979168;28;19921;-73
2022/04/22 13:40:31;;;;;;;;;;;16.10;63.50;;;;;;4995056;28;19920;-73
2022/04/22 13:43:45;;;;;;;;;;;;;;;;;;;;;
2022/04/22 14:14:20;;;;;;;;;;;16.40;64.90;;;;;;5007194;28;20279;-78
2022/04/22 14:17:32;;;;;;;;;;;16.60;65.80;;;;;;4944370;28;20424;-78
2022/04/22 14:20:03;;;;;;;;;;;16.80;62.20;;;;;;4955966;28;19985;-77
2022/04/22 14:22:29;;;;;;;;;;;16.80;64.70;;;;;;4972369;28;19913;-76
2022/04/22 14:24:55;;;;;;;;;;;16.50;64.60;;;;;;4959159;28;19919;-74
2022/04/22 14:27:20;;;;;;;;;;;16.80;64.10;;;;;;4976191;28;19914;-74
2022/04/22 14:29:47;;;;;;;;;;;16.80;63.50;;;;;;4976193;28;19941;-79
2022/04/22 15:00:29;;;;;;;;;;;17.40;60.20;;;;;;4980488;28;19964;-77
2022/04/22 15:02:58;;;;;;;;;;;17.80;60.20;;;;;;4979923;28;20418;-81
2022/04/22 15:05:26;;;;;;;;;;;17.90;58.80;;;;;;4979958;28;19917;-79
2022/04/22 15:07:52;;;;;;;;;;;18.20;58.70;;;;;;4979725;28;20000;-76
2022/04/22 15:10:18;;;;;;;;;;;18.10;57.00;;;;;;4979072;28;20001;-74
2022/04/22 15:12:44;;;;;;;;;;;18.10;57.10;;;;;;4977609;28;19913;-75
2022/04/22 15:15:09;;;;;;;;;;;18.10;56.90;;;;;;4977817;28;19921;-76
2022/04/22 15:26:01;;;;;;;;;;;18.20;57.00;;;;;;4998071;28;19917;-75
2022/04/22 15:28:27;;;;;;;;;;;18.30;55.40;;;;;;4997493;28;20425;-76
2022/04/22 15:30:59;;;;;;;;;;;18.30;56.10;;;;;;4998924;28;19955;-78
2022/04/22 15:33:25;;;;;;;;;;;18.50;55.10;;;;;;4996334;28;19914;-72
2022/04/22 15:35:51;;;;;;;;;;;18.20;54.60;;;;;;5015116;28;20276;-72
2022/04/22 15:38:35;;;;;;;;;;;18.10;55.40;;;;;;4997390;28;21130;-75
2022/04/22 15:48:14;;;;;;;;;;;18.10;56.00;;;;;;4975381;28;20064;-73
2022/04/22 15:58:02;;;;;;;;;;;18.20;57.30;;;;;;4889775;29;19914;-75
2022/04/22 16:01:04;;;;;;;;;;;18.10;56.60;;;;;;4907345;29;19914;-73
2022/04/22 16:07:29;;;;;;;;;;;18.10;57.80;;;;;;4958759;29;20355;-72
2022/04/22 16:16:15;;;;;;;;;;;16.90;58.10;;;;;;4938073;29;19922;-78
2022/04/22 16:18:41;;;;;;;;;;;16.60;59.90;;;;;;4916943;29;19925;-79
2022/04/22 16:21:07;;;;;;;;;;;16.50;60.50;;;;;;4918779;29;19918;-80
2022/04/22 16:23:32;;;;;;;;;;;16.20;60.80;;;;;;4938209;29;19918;-80
2022/04/22 16:25:58;;;;;;;;;;;15.80;62.10;;;;;;4939197;29;19969;-80
2022/04/22 16:28:23;;;;;;;;;;;15.40;64.10;;;;;;4923327;29;20292;-80
2022/04/22 16:30:51;;;;;;;;;;;15.20;64.70;;;;;;4952285;28;19968;-82
2022/04/22 16:33:17;;;;;;;;;;;15.00;65.00;;;;;;4981889;28;19940;-81
2022/04/22 16:35:43;;;;;;;;;;;14.90;66.90;;;;;;4997813;28;19917;-80
2022/04/22 16:38:09;;;;;;;;;;;14.80;67.30;;;;;;4997460;28;19920;-78
2022/04/22 16:40:34;;;;;;;;;;;14.70;66.70;;;;;;4981460;28;19913;-78
2022/04/22 16:43:00;;;;;;;;;;;14.70;66.30;;;;;;4997755;28;19920;-78
2022/04/22 16:45:25;;;;;;;;;;;14.70;67.20;;;;;;4997667;28;19964;-78
2022/04/22 16:47:51;;;;;;;;;;;14.70;66.90;;;;;;4997946;28;19924;-77
2022/04/22 16:50:17;;;;;;;;;;;14.60;67.90;;;;;;4997189;28;19917;-78
2022/04/22 16:52:44;;;;;;;;;;;14.50;69.00;;;;;;4981635;28;19917;-77
2022/04/22 16:55:13;;;;;;;;;;;14.50;68.90;;;;;;4996739;28;19917;-78
2022/04/22 16:57:39;;;;;;;;;;;14.50;69.60;;;;;;4981543;28;19917;-77
2022/04/22 17:00:12;;;;;;;;;;;14.50;69.40;;;;;;4996846;28;20374;-78
2022/04/22 17:02:40;;;;;;;;;;;14.60;69.20;;;;;;4997628;28;19940;-78
2022/04/22 17:05:06;;;;;;;;;;;14.70;69.60;;;;;;4980954;28;20499;-78
2022/04/22 17:07:32;;;;;;;;;;;14.50;70.70;;;;;;4997487;28;19917;-79
2022/04/22 17:09:58;;;;;;;;;;;14.50;70.40;;;;;;4997053;28;19917;-79
2022/04/22 17:12:27;;;;;;;;;;;14.60;70.20;;;;;;4996955;28;20338;-78
2022/04/22 17:23:13;;;;;;;;;;;14.70;69.40;;;;;;4960759;26;19912;-71
2022/04/22 17:25:39;;;;;;;;;;;14.50;69.90;;;;;;5041314;28;19940;-79
2022/04/22 17:28:05;;;;;;;;;;;14.50;70.30;;;;;;5025572;28;19992;-80
2022/04/22 17:30:31;;;;;;;;;;;14.40;70.60;;;;;;5036369;28;19917;-79
2022/04/22 17:32:57;;;;;;;;;;;14.40;71.50;;;;;;5020748;28;19917;-78
2022/04/22 17:35:22;;;;;;;;;;;14.30;72.20;;;;;;5035406;28;20343;-75
2022/04/22 17:37:48;;;;;;;;;;;14.20;71.60;;;;;;5037875;28;19912;-75
2022/04/22 17:40:16;;;;;;;;;;;14.10;72.10;;;;;;5016741;28;19917;-79
2022/04/22 17:42:42;;;;;;;;;;;14.10;72.40;;;;;;5016982;28;19924;-78
2022/04/22 17:45:08;;;;;;;;;;;14.00;72.60;;;;;;5000082;28;20011;-78
2022/04/22 17:47:33;;;;;;;;;;;14.00;72.80;;;;;;4999562;28;19919;-78
2022/04/22 17:49:59;;;;;;;;;;;13.90;73.40;;;;;;5015713;28;20227;-77
2022/04/22 17:52:25;;;;;;;;;;;13.90;73.70;;;;;;4999614;28;19924;-78
2022/04/22 17:54:51;;;;;;;;;;;13.80;73.70;;;;;;5016083;28;20004;-79
2022/04/22 17:57:17;;;;;;;;;;;13.70;74.30;;;;;;5033841;28;19917;-80
2022/04/22 17:59:46;;;;;;;;;;;13.70;74.30;;;;;;4999278;28;19943;-79
2022/04/22 18:02:13;;;;;;;;;;;13.70;74.20;;;;;;5016029;28;20016;-78
2022/04/22 18:04:40;;;;;;;;;;;13.60;74.80;;;;;;4999834;28;19995;-78
2022/04/22 18:07:23;;;;;;;;;;;13.50;74.20;;;;;;5000767;28;19938;-82
2022/04/22 18:09:54;;;;;;;;;;;13.50;74.90;;;;;;5015094;28;20578;-85
2022/04/22 18:12:23;;;;;;;;;;;13.40;74.40;;;;;;5016181;28;19913;-81
2022/04/22 18:17:45;;;;;;;;;;;13.30;74.60;;;;;;5017170;28;19927;-81
2022/04/22 18:20:38;;;;;;;;;;;13.20;74.80;;;;;;5014935;28;19913;-82
2022/04/22 18:23:13;;;;;;;;;;;13.20;74.30;;;;;;4999478;28;19914;-81
2022/04/22 18:25:41;;;;;;;;;;;13.10;74.40;;;;;;5000934;28;19987;-80
2022/04/22 18:28:13;;;;;;;;;;;13.00;74.70;;;;;;4987613;28;20019;-82
2022/04/22 18:30:45;;;;;;;;;;;13.00;74.70;;;;;;4987631;28;19967;-80
2022/04/22 18:33:15;;;;;;;;;;;13.00;74.60;;;;;;5003884;28;19912;-81
2022/04/22 18:35:44;;;;;;;;;;;13.00;74.80;;;;;;5003919;28;20003;-81
2022/04/22 18:38:10;;;;;;;;;;;12.90;74.20;;;;;;5002821;28;19913;-81
2022/04/22 18:40:36;;;;;;;;;;;12.90;73.80;;;;;;5019737;28;19913;-82
2022/04/22 18:43:03;;;;;;;;;;;12.90;73.40;;;;;;5003344;28;20374;-81
2022/04/22 18:45:29;;;;;;;;;;;12.90;73.70;;;;;;5003647;28;20003;-82
2022/04/22 18:47:56;;;;;;;;;;;12.80;73.90;;;;;;5003107;28;20011;-82
2022/04/22 18:50:22;;;;;;;;;;;12.80;73.90;;;;;;5002291;28;19913;-81
2022/04/22 18:52:52;;;;;;;;;;;12.80;73.40;;;;;;5003915;28;19913;-81
2022/04/22 18:55:18;;;;;;;;;;;12.80;73.20;;;;;;5018976;28;19999;-81
2022/04/22 18:57:43;;;;;;;;;;;12.80;74.10;;;;;;5019333;28;20248;-81
2022/04/22 19:00:10;;;;;;;;;;;12.50;75.10;;;;;;5002673;28;19917;-81
2022/04/22 19:02:36;;;;;;;;;;;12.40;75.80;;;;;;5019314;28;19924;-81
2022/04/22 19:05:08;;;;;;;;;;;12.40;75.60;;;;;;5019187;28;19913;-81
2022/04/22 19:07:36;;;;;;;;;;;12.40;75.20;;;;;;5013728;28;20271;-82
2022/04/22 19:10:02;;;;;;;;;;;12.50;75.30;;;;;;5033175;28;19913;-83
2022/04/22 19:12:29;;;;;;;;;;;12.30;75.60;;;;;;5027566;28;19951;-79
2022/04/22 19:14:55;;;;;;;;;;;12.20;76.10;;;;;;5027700;28;19948;-81
2022/04/22 19:17:21;;;;;;;;;;;12.20;76.20;;;;;;5006897;28;19917;-81
2022/04/22 19:19:46;;;;;;;;;;;12.10;76.70;;;;;;5018945;28;19913;-81
2022/04/22 19:22:12;;;;;;;;;;;12.10;76.00;;;;;;5018520;28;19924;-80
2022/04/22 19:24:38;;;;;;;;;;;12.10;75.80;;;;;;5002552;28;19933;-81
2022/04/22 19:27:05;;;;;;;;;;;12.10;75.90;;;;;;5018834;28;20278;-81
2022/04/22 19:29:30;;;;;;;;;;;12.10;76.10;;;;;;5001435;28;19917;-83
2022/04/22 19:31:56;;;;;;;;;;;12.00;76.50;;;;;;5002434;28;19913;-80
2022/04/22 19:34:22;;;;;;;;;;;11.90;76.70;;;;;;5001938;28;19917;-81
2022/04/22 19:42:16;;;;;;;;;;;11.70;77.30;;;;;;5018368;28;20294;-78
2022/04/22 19:44:42;;;;;;;;;;;11.70;77.40;;;;;;5018900;28;20015;-74
2022/04/22 19:47:13;;;;;;;;;;;11.70;77.30;;;;;;5018960;28;20334;-73
2022/04/22 19:49:39;;;;;;;;;;;11.70;77.60;;;;;;5001465;28;19920;-75
2022/04/22 19:52:04;;;;;;;;;;;11.60;78.40;;;;;;5001331;28;19913;-76
2022/04/22 19:54:31;;;;;;;;;;;11.60;78.40;;;;;;5017316;28;19967;-80
2022/04/22 19:56:57;;;;;;;;;;;11.50;78.90;;;;;;5018043;28;20248;-78
2022/04/22 19:59:25;;;;;;;;;;;11.50;79.30;;;;;;5000837;28;20003;-76
2022/04/22 20:01:52;;;;;;;;;;;11.50;79.90;;;;;;5016870;28;19913;-79
2022/04/22 20:04:17;;;;;;;;;;;11.40;80.00;;;;;;5017656;28;19916;-77